Share

Agency, IA

6:01 AM CDT on April 24, 2014 (GMT -0500)
Ottumwa Industrial (KOTM) Elev 843 ft | 41.11 °N, 92.45 °W | Change Station

Current weather conditions updated 8 minutes ago

Overcast
Overcast
52 °F
Feels Like 52 °F
N
14
Wind Variable Wind from SSE
Sunrise 6:16 AM
Sunset 7:58 PM
Moon Waning Crescent

Today is forecast to be Much Warmer than yesterday. Cloudy, periods of rain.

Pressure 29.75 in
Visibility 10.0 miles
Clouds Scattered Clouds 6000 ft
Mostly Cloudy 7500 ft
Overcast 11000 ft
Dew Point 34 °F
Humidity 50%
Rainfall 0.00 in
Snow Depth Not available.
UV 0 out of 16
Pollen 10.40 out of 12
Air Quality Not available.
Flu Activity Sporadic
METAR KOTM 241053Z AUTO 15012KT 10SM SCT060 BKN075 OVC110 11/01 A2974 RMK AO2 LTG DSNT S AND SW SLP074 T01110011

More Conditions Fewer Conditions

Pressure 29.75 in
Visibility 10.0 miles
Clouds Scattered Clouds 6000 ft
Mostly Cloudy 7500 ft
Overcast 11000 ft
Dew Point 34 °F
Humidity 50%
Rainfall 0.00 in
Snow Depth Not available.
UV 0 out of 16
Pollen 10.40 out of 12
Air Quality Not available.
Flu Activity Sporadic
METAR KOTM 241053Z AUTO 15012KT 10SM SCT060 BKN075 OVC110 11/01 A2974 RMK AO2 LTG DSNT S AND SW SLP074 T01110011

More Conditions Fewer Conditions

10-Day Weather Forecast

Almanac

Astronomy

Apr. 24, 2014 Rise Set
Actual Time 6:16 AM CDT 7:58 PM CDT
Civil Twilight 5:47 AM CDT 8:27 PM CDT
Nautical Twilight 5:12 AM CDT 9:03 PM CDT
Astronomical Twilight 4:34 AM CDT 9:41 PM CDT
Moon 3:30 AM CDT 3:12 PM CDT
Length of Visible Light 14h 40m
Length of Day
13h 41m
Tomorrow will be 2m 28s longer.
Waning Crescent, 27% of the Moon is Illuminated
Today
Waning Crescent
Apr 29
New
May 6
First Quarter
May 14
Full
May 21
Last Quarter

Today's Extremes

State Highs State Lows

Community

  • Stacked
    Stacked
  • clouds approaching Red Sox Nation
    clouds approaching Red Sox Nation
  • Balance
    Balance
  • Nestled In
    Nestled In
  • Stunning Sunrise
    Stunning Sunrise

WunderPhotos

Upload Photos

1,704,584 photos uploaded!

WunderBlogs® & News

Nearby

Snow Depth

Station Depth Elevation
No new snow has been reported.

Coastal Water Temperatures

Place Temperature
No Stations Reporting

Earthquake Activity

City Distance Mag. Time & Date
No recent earthquake activity has been reported nearby.
Minimum magnitude displayed is 2.5.

Nearby Weather Stations

There are no personal weather stations in this area.

What do you think?

We're not finished. Please let us know what you like, what you don't like, and what you are still missing.